Terminal Aerodrome Forecast
Issued by NWS Grand Forks, ND

Home | Current Version | Previous Version | Graphics & Text | Print | Product List | Glossary On
Versions: 1 2 3 4 5 6 7 8 9 10 11 12 13 14
000
FTUS43 KFGF 011734
TAFGFK
TAF
KGFK 011734Z 0118/0218 21009KT P6SM SCT110
     FM020700 32007KT P6SM VCTS SCT070CB BKN100
     FM021100 34010KT P6SM BKN100
     FM021600 34014G22KT P6SM FEW035=

USA.gov is the U.S. government's official web portal to all federal, state and local government web resources and services.